Fond du Lac, Wisconsin
Current Conditions -  °F | °C
As of 6:53 AM on Thursday 23 Oct 2014 (Local Time) from KFLD Reporting Station
Clear Clear  
Wind Chill: 34°   Ceiling: Unl
Heat Index: 34°   Visibility: 10mi
Dew Point: 31°   Wind: 3mph
Humidity: 89%   Direction: 170°S
Pressure: 30.17"   Gusts: NA
Location:  43.77°N, 88.48°W
Report Text: KFLD 231153Z AUTO 17003KT 10SM CLR 01/M01 A3017 RMK AO2 SLP224 T00111006 10033 20006 58006
Loading
Personal Weather Stations






























Interactive Weather Map
Tropical Storm Tracking
New forecast layout! Learn more

10-Day Weather Forecast

Advertisements
Track Severe Weather on mobile